createdAt,value
2022-11-23T00:02:19.561Z,-0.31
2022-11-23T00:04:49.379Z,-0.32
2022-11-23T00:07:19.473Z,-0.29
2022-11-23T00:09:49.301Z,-0.28
2022-11-23T00:12:20.040Z,-0.29
2022-11-23T00:14:49.850Z,-0.30
2022-11-23T00:17:19.810Z,-0.30
2022-11-23T00:19:49.800Z,-0.29
2022-11-23T00:22:19.660Z,-0.30
2022-11-23T00:24:49.602Z,-0.30
2022-11-23T00:27:19.344Z,-0.32
2022-11-23T00:29:49.841Z,-0.31
2022-11-23T00:32:19.680Z,-0.32
2022-11-23T00:34:49.551Z,-0.32
2022-11-23T00:37:19.393Z,-0.32
2022-11-23T00:39:51.700Z,-0.33
2022-11-23T00:42:21.758Z,-0.33
2022-11-23T00:44:52.091Z,-0.33
2022-11-23T00:47:22.440Z,-0.33
2022-11-23T00:49:53.551Z,-0.34
2022-11-23T00:52:24.910Z,-0.34
2022-11-23T00:54:55.411Z,-0.34
2022-11-23T00:57:25.750Z,-0.38
2022-11-23T00:59:55.819Z,-0.36
2022-11-23T01:02:28.080Z,-0.36
2022-11-23T01:04:58.021Z,-0.38
2022-11-23T01:07:30.709Z,-0.41
2022-11-23T01:10:00.470Z,-0.41
2022-11-23T01:12:31.520Z,-0.47
2022-11-23T01:15:01.628Z,-0.45
2022-11-23T01:17:31.710Z,-0.43
2022-11-23T01:20:01.601Z,-0.45
2022-11-23T01:22:31.388Z,-0.45
2022-11-23T01:25:01.400Z,-0.48
2022-11-23T01:27:49.981Z,-0.48
2022-11-23T01:30:20.530Z,-0.48
2022-11-23T01:32:51.020Z,-0.50
2022-11-23T01:35:21.840Z,-0.49
2022-11-23T01:37:51.730Z,-0.51
2022-11-23T01:40:22.291Z,-0.49
2022-11-23T01:42:56.800Z,-0.50
2022-11-23T01:45:39.558Z,-0.53
2022-11-23T01:48:16.791Z,-0.55
2022-11-23T01:50:50.621Z,-0.54
2022-11-23T01:53:23.072Z,-0.56
2022-11-23T01:55:55.580Z,-0.55
2022-11-23T01:58:28.071Z,-0.56
2022-11-23T02:00:58.539Z,-0.56
2022-11-23T02:03:31.121Z,-0.55
2022-11-23T02:06:03.890Z,-0.57
2022-11-23T02:08:34.110Z,-0.56
2022-11-23T02:11:05.860Z,-0.54
2022-11-23T02:13:35.942Z,-0.50
2022-11-23T02:16:06.991Z,-0.50
2022-11-23T02:18:38.611Z,-0.48
2022-11-23T02:21:08.911Z,-0.45
2022-11-23T02:23:46.992Z,-0.46
2022-11-23T02:26:21.869Z,-0.42
2022-11-23T02:28:56.432Z,-0.40
2022-11-23T02:31:26.691Z,-0.41
2022-11-23T02:33:57.388Z,-0.40
2022-11-23T02:36:38.349Z,-0.40
2022-11-23T02:39:11.583Z,-0.43
2022-11-23T02:41:44.501Z,-0.44
2022-11-23T02:44:32.588Z,-0.43
2022-11-23T02:47:04.441Z,-0.51
2022-11-23T02:49:35.510Z,-0.51
2022-11-23T02:52:07.189Z,-0.51
2022-11-23T02:54:37.406Z,-0.52
2022-11-23T02:57:08.589Z,-0.54
2022-11-23T02:59:38.722Z,-0.55
2022-11-23T03:02:09.632Z,-0.58
2022-11-23T03:04:39.541Z,-0.57
2022-11-23T03:07:09.646Z,-0.57
2022-11-23T03:09:39.490Z,-0.57
2022-11-23T03:12:09.565Z,-0.60
2022-11-23T03:14:39.629Z,-0.59
2022-11-23T03:17:09.518Z,-0.59
2022-11-23T03:19:45.743Z,-0.57
2022-11-23T03:22:16.415Z,-0.59
2022-11-23T03:24:46.579Z,-0.61
2022-11-23T03:27:18.920Z,-0.57
2022-11-23T03:29:49.491Z,-0.61
2022-11-23T03:32:22.641Z,-0.61
2022-11-23T03:34:54.858Z,-0.69
2022-11-23T03:37:25.640Z,-0.77
2022-11-23T03:39:56.351Z,-0.85
2022-11-23T03:42:45.230Z,-0.90
2022-11-23T03:45:15.642Z,-0.93
2022-11-23T03:47:45.672Z,-0.98
2022-11-23T03:50:16.262Z,-1.01
2022-11-23T03:52:46.131Z,-1.02
2022-11-23T03:55:18.519Z,-1.02
2022-11-23T03:57:50.240Z,-1.08
2022-11-23T04:00:21.082Z,-1.12
2022-11-23T04:02:51.774Z,-1.17
2022-11-23T04:05:50.981Z,-1.16
2022-11-23T04:08:21.781Z,-1.18
2022-11-23T04:10:52.069Z,-1.21
2022-11-23T04:13:25.990Z,-1.21
2022-11-23T04:15:56.201Z,-1.23
2022-11-23T04:18:26.667Z,-1.23
2022-11-23T04:20:57.451Z,-1.25
2022-11-23T04:23:27.583Z,-1.25
2022-11-23T04:25:57.681Z,-1.21
2022-11-23T04:28:28.118Z,-1.24
2022-11-23T04:30:58.540Z,-1.24
2022-11-23T04:33:31.301Z,-1.22
2022-11-23T04:36:01.633Z,-1.21
2022-11-23T04:38:31.762Z,-1.22
2022-11-23T04:41:02.583Z,-1.22
2022-11-23T04:43:35.240Z,-1.21
2022-11-23T04:46:06.460Z,-1.18
2022-11-23T04:48:36.466Z,-1.19
2022-11-23T04:51:07.811Z,-1.21
2022-11-23T04:53:39.886Z,-1.22
2022-11-23T04:56:12.363Z,-1.21
2022-11-23T04:58:43.500Z,-1.24
2022-11-23T05:01:14.702Z,-1.24
2022-11-23T05:04:04.792Z,-1.24
2022-11-23T05:06:34.904Z,-1.26
2022-11-23T05:09:06.531Z,-1.29
2022-11-23T05:12:06.380Z,-1.32
2022-11-23T05:14:37.189Z,-1.34
2022-11-23T05:17:09.552Z,-1.35
2022-11-23T05:19:40.893Z,-1.36
2022-11-23T05:22:11.691Z,-1.34
2022-11-23T05:24:43.608Z,-1.35
2022-11-23T05:27:17.831Z,-1.34
2022-11-23T05:29:47.889Z,-1.35
2022-11-23T05:32:18.118Z,-1.37
2022-11-23T05:34:47.998Z,-1.39
2022-11-23T05:37:18.590Z,-1.43
2022-11-23T05:39:54.363Z,-1.42
2022-11-23T05:42:29.030Z,-1.40
2022-11-23T05:45:05.324Z,-1.36
2022-11-23T05:47:42.329Z,-1.38
2022-11-23T05:50:20.841Z,-1.38
2022-11-23T05:52:50.749Z,-1.40
2022-11-23T05:55:21.379Z,-1.39
2022-11-23T05:57:51.351Z,-1.48
2022-11-23T06:00:22.347Z,-1.50
2022-11-23T06:03:01.210Z,-1.47
2022-11-23T06:05:31.460Z,-1.46
2022-11-23T06:08:04.268Z,-1.53
2022-11-23T06:10:35.699Z,-1.55
2022-11-23T06:13:06.396Z,-1.55
2022-11-23T06:15:36.630Z,-1.54
2022-11-23T06:18:07.169Z,-1.57
2022-11-23T06:20:49.129Z,-1.58
2022-11-23T06:23:19.210Z,-1.56
2022-11-23T06:25:49.037Z,-1.52
2022-11-23T06:28:24.360Z,-1.45
2022-11-23T06:30:56.621Z,-1.42
2022-11-23T06:33:28.120Z,-1.38
2022-11-23T06:35:59.999Z,-1.34
2022-11-23T06:38:33.930Z,-1.30
2022-11-23T06:41:06.870Z,-1.27
2022-11-23T06:43:37.812Z,-1.25
2022-11-23T06:46:08.353Z,-1.23
2022-11-23T06:48:44.922Z,-1.20
2022-11-23T06:51:15.320Z,-1.18
2022-11-23T06:53:46.140Z,-1.24
2022-11-23T06:56:17.111Z,-1.21
2022-11-23T06:58:48.753Z,-1.18
2022-11-23T07:01:21.731Z,-1.17
2022-11-23T07:03:58.281Z,-1.16
2022-11-23T07:06:35.471Z,-1.17
2022-11-23T07:09:08.181Z,-1.12
2022-11-23T07:11:58.546Z,-1.15
2022-11-23T07:14:30.881Z,-1.13
2022-11-23T07:17:01.403Z,-1.09
2022-11-23T07:19:31.530Z,-1.06
2022-11-23T07:22:02.367Z,-1.02
2022-11-23T07:24:39.538Z,-1.01
2022-11-23T07:27:11.757Z,-0.98
2022-11-23T07:29:41.670Z,-1.00
2022-11-23T07:32:11.590Z,-0.96
2022-11-23T07:34:42.629Z,-0.92
2022-11-23T07:37:15.750Z,-0.92
2022-11-23T07:39:57.370Z,-0.89
2022-11-23T07:42:34.533Z,-0.83
2022-11-23T07:45:09.442Z,-0.81
2022-11-23T07:47:41.983Z,-0.77
2022-11-23T07:50:13.779Z,-0.75
2022-11-23T07:52:43.772Z,-0.71
2022-11-23T07:55:15.663Z,-0.68
2022-11-23T07:57:45.979Z,-0.67
2022-11-23T08:00:17.825Z,-0.66
2022-11-23T08:03:04.540Z,-0.62
2022-11-23T08:05:38.088Z,-0.57
2022-11-23T08:08:08.101Z,-0.59
2022-11-23T08:10:43.619Z,-0.56
2022-11-23T08:13:15.350Z,-0.56
2022-11-23T08:15:50.153Z,-0.54
2022-11-23T08:18:24.095Z,-0.52
2022-11-23T08:20:54.482Z,-0.47
2022-11-23T08:23:25.398Z,-0.43
2022-11-23T08:25:55.440Z,-0.43
2022-11-23T08:28:28.445Z,-0.45
2022-11-23T08:30:58.431Z,-0.48
2022-11-23T08:33:28.418Z,-0.43
2022-11-23T08:35:58.268Z,-0.39
2022-11-23T08:38:29.617Z,-0.38
2022-11-23T08:41:03.809Z,-0.35
2022-11-23T08:43:34.590Z,-0.34
2022-11-23T08:46:11.105Z,-0.33
2022-11-23T08:48:42.377Z,-0.37
2022-11-23T08:51:12.821Z,-0.31
2022-11-23T08:53:43.709Z,-0.28
2022-11-23T08:56:13.699Z,-0.22
2022-11-23T08:58:43.980Z,-0.19
2022-11-23T09:01:15.820Z,-0.18
2022-11-23T09:03:47.642Z,-0.11
2022-11-23T09:06:17.988Z,-0.10
2022-11-23T09:08:50.391Z,-0.08
2022-11-23T09:11:20.190Z,-0.09
2022-11-23T09:13:50.050Z,-0.09
2022-11-23T09:16:20.490Z,-0.05
2022-11-23T09:18:50.550Z,-0.04
2022-11-23T09:21:20.967Z,-0.07
2022-11-23T09:23:51.299Z,-0.06
2022-11-23T09:26:21.271Z,-0.01
2022-11-23T09:28:52.706Z,0.03
2022-11-23T09:31:25.691Z,0.04
2022-11-23T09:33:55.800Z,0.06
2022-11-23T09:36:26.417Z,0.10
2022-11-23T09:38:57.470Z,0.11
2022-11-23T09:41:53.119Z,0.07
2022-11-23T09:44:32.363Z,0.08
2022-11-23T09:47:13.952Z,0.12
2022-11-23T09:49:53.251Z,0.15
2022-11-23T09:52:25.284Z,0.08
2022-11-23T09:54:59.113Z,0.06
2022-11-23T09:57:34.948Z,0.02
2022-11-23T10:00:11.110Z,-0.03
2022-11-23T10:02:42.767Z,0.00
2022-11-23T10:05:19.161Z,0.03
2022-11-23T10:08:06.865Z,0.02
2022-11-23T10:10:44.151Z,0.02
2022-11-23T10:13:34.718Z,0.06
2022-11-23T10:16:37.641Z,0.08
2022-11-23T10:19:19.811Z,0.05
2022-11-23T10:21:55.769Z,0.05
2022-11-23T10:24:32.203Z,0.05
2022-11-23T10:27:06.720Z,0.07
2022-11-23T10:29:39.829Z,0.06
2022-11-23T10:32:22.611Z,0.10
2022-11-23T10:35:03.675Z,0.17
2022-11-23T10:37:34.441Z,0.16
2022-11-23T10:40:04.624Z,0.22
2022-11-23T10:42:43.110Z,0.28
2022-11-23T10:45:22.961Z,0.29
2022-11-23T10:47:58.539Z,0.31
2022-11-23T10:50:33.160Z,0.29
2022-11-23T10:53:19.538Z,0.28
2022-11-23T10:55:53.388Z,0.24
2022-11-23T10:58:31.011Z,0.22
2022-11-23T11:01:03.593Z,0.21
2022-11-23T11:03:35.459Z,0.20
2022-11-23T11:06:09.103Z,0.22
2022-11-23T11:08:51.926Z,0.22
2022-11-23T11:11:28.558Z,0.23
2022-11-23T11:14:06.913Z,0.20
2022-11-23T11:16:38.003Z,0.21
2022-11-23T11:19:26.530Z,0.22
2022-11-23T11:21:57.340Z,0.19
2022-11-23T11:24:33.071Z,0.19
2022-11-23T11:27:07.273Z,0.19
2022-11-23T11:29:47.147Z,0.16
2022-11-23T11:32:25.091Z,0.15
2022-11-23T11:35:01.170Z,0.15
2022-11-23T11:37:35.930Z,0.14
2022-11-23T11:40:17.180Z,0.16
2022-11-23T11:42:54.693Z,0.19
2022-11-23T11:45:28.362Z,0.16
2022-11-23T11:48:00.677Z,0.14
2022-11-23T11:50:34.451Z,0.12
2022-11-23T11:53:15.515Z,0.11
2022-11-23T11:55:55.611Z,0.05
2022-11-23T11:58:26.460Z,0.06
2022-11-23T12:01:04.862Z,0.08
2022-11-23T12:03:41.920Z,0.09
2022-11-23T12:06:21.304Z,0.05
2022-11-23T12:09:00.964Z,0.03
2022-11-23T12:11:32.419Z,0.07
2022-11-23T12:14:05.169Z,0.07
2022-11-23T12:16:47.721Z,0.06
2022-11-23T12:19:31.017Z,0.01
2022-11-23T12:22:17.010Z,0.00
2022-11-23T12:25:10.941Z,0.02
2022-11-23T12:27:57.051Z,-0.01
2022-11-23T12:30:42.432Z,-0.01
2022-11-23T12:33:44.490Z,0.02
2022-11-23T12:36:41.551Z,-0.01
2022-11-23T12:39:28.681Z,0.00
2022-11-23T12:42:06.230Z,-0.01
2022-11-23T12:45:03.750Z,0.04
2022-11-23T12:47:51.310Z,0.04
2022-11-23T12:50:31.159Z,0.05
2022-11-23T12:53:08.947Z,0.04
2022-11-23T12:55:48.857Z,0.03
2022-11-23T12:58:24.322Z,0.06
2022-11-23T13:00:58.772Z,0.02
2022-11-23T13:03:59.263Z,0.03
2022-11-23T13:07:12.429Z,0.00
2022-11-23T13:10:10.235Z,-0.04
2022-11-23T13:13:08.785Z,-0.00
2022-11-23T13:16:16.075Z,0.01
2022-11-23T13:19:00.170Z,0.02
2022-11-23T13:21:40.078Z,0.04
2022-11-23T13:24:28.353Z,-0.00
2022-11-23T13:27:32.315Z,0.01
2022-11-23T13:30:10.643Z,0.04
2022-11-23T13:32:56.086Z,0.04
2022-11-23T13:35:55.048Z,0.00
2022-11-23T13:38:42.460Z,-0.02
2022-11-23T13:41:52.831Z,-0.03
2022-11-23T13:44:25.571Z,-0.02
2022-11-23T13:47:01.870Z,0.02
2022-11-23T13:49:35.291Z,-0.04
2022-11-23T13:52:28.151Z,-0.07
2022-11-23T13:55:08.856Z,-0.07
2022-11-23T13:57:41.355Z,-0.07
2022-11-23T14:00:46.695Z,-0.06
2022-11-23T14:03:51.574Z,-0.03
2022-11-23T14:06:45.921Z,-0.02
2022-11-23T14:09:23.767Z,-0.00
2022-11-23T14:12:01.015Z,-0.01
2022-11-23T14:14:48.039Z,-0.01
2022-11-23T14:17:37.185Z,-0.06
2022-11-23T14:20:35.454Z,-0.07
2022-11-23T14:23:41.719Z,-0.07
2022-11-23T14:26:26.562Z,-0.06
2022-11-23T14:29:25.652Z,-0.05
2022-11-23T14:32:11.333Z,-0.09
2022-11-23T14:34:54.941Z,-0.13
2022-11-23T14:37:33.795Z,-0.09
2022-11-23T14:40:18.100Z,-0.11
2022-11-23T14:42:56.291Z,-0.08
2022-11-23T14:45:36.971Z,-0.05
2022-11-23T14:48:30.281Z,-0.04
2022-11-23T14:51:03.217Z,-0.01
2022-11-23T14:53:36.010Z,-0.04
2022-11-23T14:56:17.234Z,-0.02
2022-11-23T14:58:47.763Z,0.01
2022-11-23T15:01:22.962Z,0.01
2022-11-23T15:04:02.390Z,0.02
2022-11-23T15:06:42.357Z,0.01
2022-11-23T15:09:37.983Z,0.03
2022-11-23T15:12:23.192Z,-0.00
2022-11-23T15:14:56.952Z,0.00
2022-11-23T15:17:27.023Z,-0.02
2022-11-23T15:19:59.050Z,-0.04
2022-11-23T15:22:31.861Z,-0.03
2022-11-23T15:25:12.191Z,-0.11
2022-11-23T15:27:44.380Z,-0.09
2022-11-23T15:30:20.811Z,-0.04
2022-11-23T15:33:04.363Z,-0.05
2022-11-23T15:35:36.672Z,-0.06
2022-11-23T15:38:16.634Z,-0.02
2022-11-23T15:40:52.160Z,-0.01
2022-11-23T15:43:23.669Z,-0.01
2022-11-23T15:46:05.329Z,0.00
2022-11-23T15:48:36.855Z,0.01
2022-11-23T15:51:08.937Z,-0.00
2022-11-23T15:53:51.162Z,-0.02
2022-11-23T15:56:25.831Z,-0.04
2022-11-23T15:58:59.611Z,0.01
2022-11-23T16:01:31.037Z,-0.07
2022-11-23T16:04:04.282Z,-0.11
2022-11-23T16:06:39.760Z,-0.10
2022-11-23T16:09:53.376Z,-0.08
2022-11-23T16:12:29.160Z,-0.13
2022-11-23T16:15:22.241Z,-0.10
2022-11-23T16:17:53.731Z,-0.11
2022-11-23T16:20:27.170Z,-0.08
2022-11-23T16:22:59.740Z,-0.07
2022-11-23T16:25:32.560Z,-0.08
2022-11-23T16:28:04.459Z,-0.04
2022-11-23T16:30:39.241Z,-0.02
2022-11-23T16:33:16.386Z,-0.02
2022-11-23T16:35:46.688Z,-0.03
2022-11-23T16:38:22.430Z,-0.02
2022-11-23T16:40:55.982Z,-0.04
2022-11-23T16:43:37.859Z,-0.06
2022-11-23T16:46:22.432Z,-0.12
2022-11-23T16:48:58.910Z,-0.09
2022-11-23T16:51:29.683Z,-0.09
2022-11-23T16:54:18.055Z,-0.05
2022-11-23T16:57:03.175Z,-0.01
2022-11-23T16:59:36.478Z,-0.01
2022-11-23T17:02:12.880Z,0.01
2022-11-23T17:04:46.874Z,-0.02
2022-11-23T17:07:17.082Z,0.01
2022-11-23T17:09:47.678Z,0.02
2022-11-23T17:12:19.071Z,0.03
2022-11-23T17:14:50.883Z,0.03
2022-11-23T17:17:22.707Z,0.03
2022-11-23T17:19:53.470Z,0.03
2022-11-23T17:22:25.250Z,0.05
2022-11-23T17:24:57.330Z,0.05
2022-11-23T17:27:30.022Z,0.04
2022-11-23T17:30:04.591Z,0.06
2022-11-23T17:32:35.729Z,0.05
2022-11-23T17:35:11.651Z,0.01
2022-11-23T17:37:42.680Z,0.04
2022-11-23T17:40:17.513Z,0.05
2022-11-23T17:42:47.712Z,0.05
2022-11-23T17:45:18.463Z,0.05
2022-11-23T17:47:49.210Z,0.04
2022-11-23T17:50:20.192Z,0.04
2022-11-23T17:52:53.903Z,0.03
2022-11-23T17:55:31.201Z,0.03
2022-11-23T17:58:01.920Z,0.06
2022-11-23T18:00:33.510Z,0.03
2022-11-23T18:03:04.307Z,-0.02
2022-11-23T18:05:38.422Z,0.04
2022-11-23T18:08:10.024Z,0.02
2022-11-23T18:10:43.099Z,0.05
2022-11-23T18:13:16.238Z,0.06
2022-11-23T18:15:46.422Z,0.10
2022-11-23T18:18:16.782Z,0.13
2022-11-23T18:20:46.683Z,0.13
2022-11-23T18:23:16.830Z,0.15
2022-11-23T18:25:47.590Z,0.17
2022-11-23T18:28:18.494Z,0.20
2022-11-23T18:30:49.167Z,0.20
2022-11-23T18:33:19.864Z,0.19
2022-11-23T18:35:52.295Z,0.18
2022-11-23T18:38:23.270Z,0.19
2022-11-23T18:40:56.069Z,0.19
2022-11-23T18:43:26.499Z,0.19
2022-11-23T18:45:56.571Z,0.18
2022-11-23T18:48:28.189Z,0.17
2022-11-23T18:50:58.241Z,0.15
2022-11-23T18:53:28.100Z,0.15
2022-11-23T18:56:05.283Z,0.14
2022-11-23T18:58:36.283Z,0.13
2022-11-23T19:01:12.645Z,0.10
2022-11-23T19:03:44.825Z,0.10
2022-11-23T19:06:18.660Z,0.09
2022-11-23T19:08:59.472Z,0.05
2022-11-23T19:11:30.092Z,-0.00
2022-11-23T19:14:01.980Z,0.01
2022-11-23T19:16:33.066Z,0.01
2022-11-23T19:19:09.249Z,-0.04
2022-11-23T19:21:42.530Z,-0.04
2022-11-23T19:24:13.833Z,-0.03
2022-11-23T19:26:49.500Z,0.00
2022-11-23T19:29:23.773Z,-0.00
2022-11-23T19:31:57.423Z,-0.01
2022-11-23T19:34:31.321Z,0.01
2022-11-23T19:37:02.776Z,0.03
2022-11-23T19:39:34.339Z,0.04
2022-11-23T19:42:04.651Z,0.04
2022-11-23T19:44:37.100Z,0.02
2022-11-23T19:47:13.855Z,0.02
2022-11-23T19:49:46.391Z,0.01
2022-11-23T19:52:17.820Z,-0.01
2022-11-23T19:54:47.671Z,0.02
2022-11-23T19:57:17.980Z,0.02
2022-11-23T19:59:47.981Z,0.03
2022-11-23T20:02:25.026Z,0.02
2022-11-23T20:04:55.171Z,0.02
2022-11-23T20:23:50.369Z,-0.09
2022-11-23T20:26:22.342Z,-0.12
2022-11-23T20:28:53.610Z,-0.07
2022-11-23T20:31:25.295Z,-0.08
2022-11-23T20:33:56.070Z,-0.09
2022-11-23T20:36:27.745Z,-0.09
2022-11-23T20:38:58.729Z,-0.11
2022-11-23T20:41:30.310Z,-0.10
2022-11-23T20:44:10.685Z,-0.13
2022-11-23T20:49:31.379Z,-0.12
2022-11-23T20:52:03.172Z,-0.11
2022-11-23T20:54:33.814Z,-0.14
2022-11-23T20:57:04.600Z,-0.20
2022-11-23T20:59:34.891Z,-0.22
2022-11-23T21:02:06.124Z,-0.25
2022-11-23T21:04:36.365Z,-0.27
2022-11-23T21:07:12.397Z,-0.34
2022-11-23T21:09:44.442Z,-0.32
2022-11-23T21:12:32.363Z,-0.35
2022-11-23T21:15:03.129Z,-0.31
2022-11-23T21:17:33.638Z,-0.23
2022-11-23T21:20:04.311Z,-0.19
2022-11-23T21:22:34.552Z,-0.16
2022-11-23T21:25:07.709Z,-0.19
2022-11-23T21:27:38.161Z,-0.19
2022-11-23T21:30:10.269Z,-0.19
2022-11-23T21:32:41.151Z,-0.15
2022-11-23T21:35:12.571Z,-0.13
2022-11-23T21:37:43.140Z,-0.12
2022-11-23T21:40:16.310Z,-0.15
2022-11-23T21:42:46.180Z,-0.11
2022-11-23T21:45:17.181Z,-0.13
2022-11-23T21:47:50.341Z,-0.10
2022-11-23T21:50:20.560Z,-0.09
2022-11-23T21:52:50.887Z,-0.07
2022-11-23T21:55:21.030Z,-0.08
2022-11-23T21:57:51.420Z,-0.05
2022-11-23T22:00:28.414Z,-0.06
2022-11-23T22:03:01.441Z,-0.08
2022-11-23T22:05:31.523Z,-0.06
2022-11-23T22:08:28.108Z,-0.03
2022-11-23T22:10:53.922Z,-0.09
2022-11-23T22:13:28.202Z,-0.05
2022-11-23T22:16:00.591Z,-0.05
2022-11-23T22:18:31.231Z,-0.03
2022-11-23T22:21:06.220Z,-0.04
2022-11-23T22:23:36.190Z,-0.05
2022-11-23T22:26:08.500Z,-0.07
2022-11-23T22:28:40.477Z,-0.05
2022-11-23T22:31:12.214Z,-0.02
2022-11-23T22:33:43.055Z,-0.01
2022-11-23T22:36:14.880Z,-0.06
2022-11-23T22:38:45.250Z,-0.06
2022-11-23T22:41:17.461Z,-0.04
2022-11-23T22:43:47.920Z,0.00
2022-11-23T22:46:19.778Z,0.01
2022-11-23T22:48:51.902Z,-0.01
2022-11-23T22:51:23.394Z,0.03
2022-11-23T22:53:56.278Z,0.03
2022-11-23T22:56:27.267Z,0.08
2022-11-23T22:58:58.199Z,0.11
2022-11-23T23:01:30.035Z,0.13
2022-11-23T23:04:02.478Z,0.07
2022-11-23T23:06:34.310Z,0.10
2022-11-23T23:09:09.002Z,0.09
2022-11-23T23:11:39.550Z,0.11
2022-11-23T23:14:10.391Z,0.17
2022-11-23T23:16:40.724Z,0.20
2022-11-23T23:19:13.902Z,0.24
2022-11-23T23:21:44.064Z,0.27
2022-11-23T23:24:14.511Z,0.29
2022-11-23T23:26:44.550Z,0.28
2022-11-23T23:29:14.990Z,0.28
2022-11-23T23:31:44.951Z,0.29
2022-11-23T23:34:18.139Z,0.31
2022-11-23T23:36:48.019Z,0.29
2022-11-23T23:39:18.328Z,0.31
2022-11-23T23:41:48.276Z,0.30
2022-11-23T23:44:19.498Z,0.26
2022-11-23T23:46:49.270Z,0.24
2022-11-23T23:49:19.450Z,0.22
2022-11-23T23:51:51.755Z,0.16
2022-11-23T23:54:21.861Z,0.16
2022-11-23T23:56:52.451Z,0.18
2022-11-23T23:59:23.300Z,0.18
